createdAt,value
2022-10-10T00:00:19.939Z,81.92138672
2022-10-10T00:01:20.728Z,81.82373047
2022-10-10T00:02:21.290Z,81.92138672
2022-10-10T00:03:21.992Z,81.82373047
2022-10-10T00:04:22.638Z,81.92138672
2022-10-10T00:05:23.318Z,81.82373047
2022-10-10T00:06:54.769Z,81.82373047
2022-10-10T00:07:55.419Z,81.92138672
2022-10-10T00:08:56.137Z,82.02514648
2022-10-10T00:09:56.859Z,82.02514648
2022-10-10T00:10:58.324Z,81.82373047
2022-10-10T00:11:59.060Z,81.61621094
2022-10-10T00:12:59.695Z,81.51855469
2022-10-10T00:14:00.298Z,81.41479492
2022-10-10T00:15:01.144Z,81.51855469
2022-10-10T00:16:01.869Z,81.61621094
2022-10-10T00:17:02.633Z,81.7199707
2022-10-10T00:18:03.985Z,81.7199707
2022-10-10T00:19:04.610Z,81.82373047
2022-10-10T00:20:05.263Z,81.92138672
2022-10-10T00:21:06.942Z,81.92138672
2022-10-10T00:22:07.625Z,81.92138672
2022-10-10T00:23:08.334Z,82.02514648
2022-10-10T00:24:08.928Z,82.02514648
2022-10-10T00:25:10.616Z,82.12280273
2022-10-10T00:26:16.190Z,82.02514648
2022-10-10T00:27:11.895Z,81.92138672
2022-10-10T00:28:12.801Z,82.02514648
2022-10-10T00:29:13.333Z,82.12280273
2022-10-10T00:30:14.129Z,82.12280273
2022-10-10T00:31:15.312Z,82.02514648
2022-10-10T00:32:16.132Z,82.02514648
2022-10-10T00:33:17.035Z,82.02514648
2022-10-10T00:34:17.808Z,82.12280273
2022-10-10T00:35:18.453Z,82.12280273
2022-10-10T00:36:19.017Z,82.12280273
2022-10-10T00:37:19.742Z,82.12280273
2022-10-10T00:38:20.788Z,82.12280273
2022-10-10T00:39:21.636Z,82.02514648
2022-10-10T00:40:22.234Z,82.06176758
2022-10-10T00:41:54.461Z,82.02514648
2022-10-10T00:42:55.208Z,82.02514648
2022-10-10T00:43:55.910Z,81.92138672
2022-10-10T00:44:56.595Z,82.06176758
2022-10-10T00:45:57.201Z,82.16552734
2022-10-10T00:46:57.838Z,82.16552734
2022-10-10T00:47:58.606Z,82.26318359
2022-10-10T00:48:59.987Z,82.26318359
2022-10-10T00:50:00.711Z,82.36694336
2022-10-10T00:51:01.983Z,82.26318359
2022-10-10T00:52:02.581Z,82.36694336
2022-10-10T00:53:03.374Z,82.36694336
2022-10-10T00:54:04.351Z,82.47070313
2022-10-10T00:55:05.306Z,82.47070313
2022-10-10T00:56:06.862Z,82.77587891
2022-10-10T00:57:07.437Z,82.77587891
2022-10-10T00:58:08.031Z,82.87353516
2022-10-10T00:59:08.893Z,82.97729492
2022-10-10T01:00:09.846Z,82.87353516
2022-10-10T01:01:11.941Z,82.77587891
2022-10-10T01:02:12.447Z,82.77587891
2022-10-10T01:03:13.936Z,82.77587891
2022-10-10T01:04:14.804Z,82.67211914
2022-10-10T01:05:15.910Z,82.53173828
2022-10-10T01:06:16.781Z,82.42797852
2022-10-10T01:07:17.443Z,82.42797852
2022-10-10T01:08:18.038Z,82.42797852
2022-10-10T01:09:19.110Z,82.42797852
2022-10-10T01:10:20.114Z,82.42797852
2022-10-10T01:11:22.021Z,82.42797852
2022-10-10T01:12:22.570Z,82.56835938
2022-10-10T01:13:53.843Z,82.56835938
2022-10-10T01:14:54.753Z,82.67211914
2022-10-10T01:15:55.514Z,82.67211914
2022-10-10T01:16:56.207Z,82.56835938
2022-10-10T01:17:56.749Z,82.53173828
2022-10-10T01:18:57.339Z,82.42797852
2022-10-10T01:19:58.237Z,82.42797852
2022-10-10T01:21:00.059Z,82.42797852
2022-10-10T01:22:01.986Z,82.42797852
2022-10-10T01:23:02.604Z,82.42797852
2022-10-10T01:24:03.134Z,82.42797852
2022-10-10T01:25:03.867Z,82.42797852
2022-10-10T01:26:05.652Z,82.42797852
2022-10-10T01:27:06.593Z,82.42797852
2022-10-10T01:28:07.647Z,82.53173828
2022-10-10T01:29:08.336Z,82.53173828
2022-10-10T01:30:09.024Z,82.53173828
2022-10-10T01:31:10.594Z,82.42797852
2022-10-10T01:32:11.347Z,82.53173828
2022-10-10T01:33:11.956Z,82.42797852
2022-10-10T01:34:12.493Z,82.53173828
2022-10-10T01:35:13.200Z,82.63549805
2022-10-10T01:36:14.175Z,82.63549805
2022-10-10T01:37:15.072Z,82.63549805
2022-10-10T01:38:15.695Z,82.53173828
2022-10-10T01:39:16.369Z,82.53173828
2022-10-10T01:40:17.130Z,82.42797852
2022-10-10T01:41:19.041Z,82.42797852
2022-10-10T01:42:19.705Z,82.42797852
2022-10-10T01:43:20.751Z,82.33032227
2022-10-10T01:44:21.372Z,82.2265625
2022-10-10T01:45:22.008Z,82.2265625
2022-10-10T01:46:23.228Z,82.42797852
2022-10-10T01:47:54.228Z,82.42797852
2022-10-10T01:48:55.491Z,82.33032227
2022-10-10T01:49:56.088Z,82.42797852
2022-10-10T01:50:56.739Z,82.42797852
2022-10-10T01:51:58.464Z,82.42797852
2022-10-10T01:53:00.021Z,82.33032227
2022-10-10T01:54:00.757Z,82.2265625
2022-10-10T01:55:01.373Z,82.2265625
2022-10-10T01:56:01.908Z,82.02514648
2022-10-10T01:57:02.748Z,82.12280273
2022-10-10T01:58:04.063Z,82.2265625
2022-10-10T01:59:05.295Z,82.2265625
2022-10-10T02:00:06.094Z,82.2265625
2022-10-10T02:01:07.483Z,82.2265625
2022-10-10T02:02:08.058Z,82.33032227
2022-10-10T02:03:08.655Z,82.42797852
2022-10-10T02:04:09.377Z,82.42797852
2022-10-10T02:05:10.022Z,82.33032227
2022-10-10T02:06:10.742Z,82.47070313
2022-10-10T02:07:11.619Z,82.47070313
2022-10-10T02:08:12.201Z,82.56835938
2022-10-10T02:09:12.907Z,82.67211914
2022-10-10T02:10:13.598Z,82.67211914
2022-10-10T02:11:14.990Z,82.77587891
2022-10-10T02:12:15.556Z,82.77587891
2022-10-10T02:13:16.059Z,82.87353516
2022-10-10T02:14:16.793Z,82.87353516
2022-10-10T02:15:18.124Z,82.87353516
2022-10-10T02:16:18.958Z,82.87353516
2022-10-10T02:17:19.856Z,82.87353516
2022-10-10T02:18:20.658Z,82.87353516
2022-10-10T02:19:21.376Z,82.87353516
2022-10-10T02:20:22.606Z,82.77587891
2022-10-10T02:21:54.462Z,82.77587891
2022-10-10T02:22:55.115Z,82.87353516
2022-10-10T02:23:55.647Z,82.97729492
2022-10-10T02:24:56.297Z,82.97729492
2022-10-10T02:25:58.032Z,83.17871094
2022-10-10T02:26:58.803Z,83.17871094
2022-10-10T02:27:59.646Z,83.17871094
2022-10-10T02:29:00.231Z,83.2824707
2022-10-10T02:30:00.820Z,83.17871094
2022-10-10T02:31:01.542Z,83.17871094
2022-10-10T02:32:03.021Z,83.08105469
2022-10-10T02:33:03.904Z,83.08105469
2022-10-10T02:34:04.506Z,83.17871094
2022-10-10T02:35:05.039Z,83.17871094
2022-10-10T02:36:05.755Z,83.17871094
2022-10-10T02:37:06.575Z,83.17871094
2022-10-10T02:38:07.451Z,83.17871094
2022-10-10T02:39:08.751Z,83.17871094
2022-10-10T02:40:09.385Z,83.17871094
2022-10-10T02:41:10.028Z,83.17871094
2022-10-10T02:42:11.458Z,83.17871094
2022-10-10T02:43:12.203Z,83.08105469
2022-10-10T02:44:12.771Z,83.08105469
2022-10-10T02:45:13.400Z,83.08105469
2022-10-10T02:46:14.358Z,83.08105469
2022-10-10T02:47:15.259Z,83.08105469
2022-10-10T02:48:16.031Z,83.17871094
2022-10-10T02:49:16.661Z,83.2824707
2022-10-10T02:50:17.230Z,83.38012695
2022-10-10T02:51:18.012Z,83.38012695
2022-10-10T02:52:19.404Z,83.38012695
2022-10-10T02:53:20.103Z,83.2824707
2022-10-10T02:54:20.832Z,83.2824707
2022-10-10T02:55:21.607Z,82.87353516
2022-10-10T02:56:53.471Z,82.87353516
2022-10-10T02:57:54.421Z,82.87353516
2022-10-10T02:58:55.107Z,82.87353516
2022-10-10T02:59:55.690Z,82.87353516
2022-10-10T03:00:56.649Z,82.97729492
2022-10-10T03:01:57.987Z,83.08105469
2022-10-10T03:02:59.480Z,83.08105469
2022-10-10T03:03:59.970Z,83.08105469
2022-10-10T03:05:00.650Z,83.08105469
2022-10-10T03:06:01.391Z,83.17871094
2022-10-10T03:07:02.212Z,83.17871094
2022-10-10T03:08:02.766Z,83.2824707
2022-10-10T03:09:03.296Z,83.2824707
2022-10-10T03:10:04.058Z,83.2824707
2022-10-10T03:11:04.848Z,83.2824707
2022-10-10T03:12:06.423Z,83.38012695
2022-10-10T03:13:06.997Z,83.48388672
2022-10-10T03:14:07.672Z,83.58764648
2022-10-10T03:15:11.701Z,83.58764648
2022-10-10T03:16:09.259Z,83.58764648
2022-10-10T03:17:10.087Z,83.58764648
2022-10-10T03:18:10.634Z,83.58764648
2022-10-10T03:19:11.204Z,83.68530273
2022-10-10T03:20:12.084Z,83.68530273
2022-10-10T03:21:12.921Z,83.68530273
2022-10-10T03:22:14.343Z,83.7890625
2022-10-10T03:23:14.895Z,83.7890625
2022-10-10T03:24:15.542Z,83.68530273
2022-10-10T03:25:16.448Z,83.7890625
2022-10-10T03:26:17.252Z,83.7890625
2022-10-10T03:27:17.995Z,83.7890625
2022-10-10T03:28:19.274Z,83.7890625
2022-10-10T03:29:19.883Z,83.89282227
2022-10-10T03:30:21.091Z,83.99047852
2022-10-10T03:31:53.142Z,83.99047852
2022-10-10T03:32:54.078Z,83.99047852
2022-10-10T03:33:54.389Z,83.99047852
2022-10-10T03:34:55.311Z,83.99047852
2022-10-10T03:35:56.374Z,83.99047852
2022-10-10T03:36:57.121Z,83.99047852
2022-10-10T03:37:57.713Z,83.95385742
2022-10-10T03:38:58.300Z,84.05151367
2022-10-10T03:39:59.241Z,84.05151367
2022-10-10T03:41:00.137Z,84.05151367
2022-10-10T03:42:01.554Z,84.05151367
2022-10-10T03:43:02.150Z,84.15527344
2022-10-10T03:44:02.694Z,84.15527344
2022-10-10T03:45:03.454Z,84.2590332
2022-10-10T03:46:04.805Z,84.2590332
2022-10-10T03:47:05.561Z,84.2590332
2022-10-10T03:48:06.187Z,84.2956543
2022-10-10T03:49:06.727Z,84.39941406
2022-10-10T03:50:08.265Z,84.39941406
2022-10-10T03:51:08.812Z,84.50317383
2022-10-10T03:52:09.993Z,84.60083008
2022-10-10T03:53:10.514Z,84.60083008
2022-10-10T03:54:11.102Z,84.70458984
2022-10-10T03:55:11.716Z,84.70458984
2022-10-10T03:56:13.635Z,84.80224609
2022-10-10T03:57:14.172Z,84.80224609
2022-10-10T03:58:14.698Z,84.80224609
2022-10-10T03:59:15.289Z,84.80224609
2022-10-10T04:00:16.283Z,84.90600586
2022-10-10T04:01:17.209Z,85.00976563
2022-10-10T04:02:18.486Z,85.00976563
2022-10-10T04:03:18.996Z,84.90600586
2022-10-10T04:04:19.519Z,84.86938477
2022-10-10T04:05:20.045Z,84.90600586
2022-10-10T04:06:21.281Z,84.765625
2022-10-10T04:07:52.063Z,84.765625
2022-10-10T04:08:53.454Z,84.765625
2022-10-10T04:09:54.400Z,84.66186523
2022-10-10T04:10:55.213Z,84.56420898
2022-10-10T04:11:55.987Z,84.66186523
2022-10-10T04:12:56.419Z,84.56420898
2022-10-10T04:13:56.930Z,84.56420898
2022-10-10T04:14:58.336Z,84.70458984
2022-10-10T04:15:59.158Z,84.70458984
2022-10-10T04:17:03.062Z,84.80224609
2022-10-10T04:18:00.791Z,84.70458984
2022-10-10T04:19:01.425Z,84.80224609
2022-10-10T04:20:02.015Z,84.90600586
2022-10-10T04:21:02.791Z,84.765625
2022-10-10T04:22:05.973Z,84.86938477
2022-10-10T04:23:04.500Z,84.765625
2022-10-10T04:24:05.229Z,84.80224609
2022-10-10T04:25:05.983Z,84.90600586
2022-10-10T04:26:06.600Z,85.00976563
2022-10-10T04:27:07.155Z,85.00976563
2022-10-10T04:28:07.818Z,85.00976563
2022-10-10T04:29:08.767Z,84.86938477
2022-10-10T04:30:09.364Z,84.765625
2022-10-10T04:31:09.905Z,84.765625
2022-10-10T04:32:11.030Z,84.66186523
2022-10-10T04:33:11.677Z,84.56420898
2022-10-10T04:34:12.585Z,84.15527344
2022-10-10T04:35:13.386Z,83.95385742
2022-10-10T04:36:13.976Z,83.95385742
2022-10-10T04:37:14.539Z,83.95385742
2022-10-10T04:38:15.114Z,83.95385742
2022-10-10T04:39:15.892Z,83.95385742
2022-10-10T04:40:16.638Z,83.95385742
2022-10-10T04:41:17.213Z,84.05151367
2022-10-10T04:42:18.487Z,84.05151367
2022-10-10T04:43:19.039Z,84.15527344
2022-10-10T04:44:19.519Z,84.2590332
2022-10-10T04:45:20.165Z,84.35668945
2022-10-10T04:46:51.174Z,84.46044922
2022-10-10T04:47:51.738Z,84.46044922
2022-10-10T04:48:52.452Z,84.46044922
2022-10-10T04:49:54.053Z,84.46044922
2022-10-10T04:50:54.687Z,84.35668945
2022-10-10T04:51:55.155Z,84.35668945
2022-10-10T04:52:56.309Z,84.46044922
2022-10-10T04:53:57.114Z,84.46044922
2022-10-10T04:54:57.872Z,84.46044922
2022-10-10T04:55:58.460Z,84.35668945
2022-10-10T04:56:58.946Z,84.2590332
2022-10-10T04:57:59.457Z,84.15527344
2022-10-10T04:59:00.761Z,84.15527344
2022-10-10T05:00:01.303Z,84.35668945
2022-10-10T05:01:01.965Z,84.46044922
2022-10-10T05:02:02.388Z,84.46044922
2022-10-10T05:03:03.617Z,84.60083008
2022-10-10T05:04:04.343Z,84.56420898
2022-10-10T05:05:04.981Z,84.66186523
2022-10-10T05:06:05.563Z,84.66186523
2022-10-10T05:07:06.126Z,84.66186523
2022-10-10T05:08:06.731Z,84.66186523
2022-10-10T05:09:08.089Z,84.66186523
2022-10-10T05:10:08.656Z,84.66186523
2022-10-10T05:11:09.257Z,84.66186523
2022-10-10T05:12:09.758Z,84.56420898
2022-10-10T05:13:11.261Z,84.56420898
2022-10-10T05:14:11.961Z,84.46044922
2022-10-10T05:15:12.513Z,84.46044922
2022-10-10T05:16:13.054Z,84.46044922
2022-10-10T05:17:13.605Z,84.46044922
2022-10-10T05:18:14.368Z,84.46044922
2022-10-10T05:19:14.998Z,84.46044922
2022-10-10T05:20:15.545Z,84.46044922
2022-10-10T05:21:16.063Z,84.46044922
2022-10-10T05:22:17.481Z,84.56420898
2022-10-10T05:23:18.988Z,84.56420898
2022-10-10T05:24:19.649Z,84.56420898
2022-10-10T05:25:50.928Z,84.56420898
2022-10-10T05:26:51.443Z,84.56420898
2022-10-10T05:27:52.158Z,84.56420898
2022-10-10T05:28:53.558Z,84.56420898
2022-10-10T05:29:54.030Z,84.56420898
2022-10-10T05:30:54.546Z,84.56420898
2022-10-10T05:31:55.241Z,84.66186523
2022-10-10T05:32:56.508Z,84.66186523
2022-10-10T05:33:57.295Z,84.80224609
2022-10-10T05:34:57.808Z,84.80224609
2022-10-10T05:35:58.281Z,84.86938477
2022-10-10T05:36:59.227Z,85.00976563
2022-10-10T05:38:00.098Z,85.00976563
2022-10-10T05:39:00.901Z,85.00976563
2022-10-10T05:40:01.668Z,85.00976563
2022-10-10T05:41:02.553Z,85.10742188
2022-10-10T05:42:03.323Z,85.10742188
2022-10-10T05:43:05.036Z,85.10742188
2022-10-10T05:44:05.855Z,85.21118164
2022-10-10T05:45:06.414Z,85.31494141
2022-10-10T05:46:07.121Z,85.31494141
2022-10-10T05:47:07.791Z,85.31494141
2022-10-10T05:48:08.537Z,85.31494141
2022-10-10T05:49:10.632Z,85.41259766
2022-10-10T05:50:11.180Z,85.41259766
2022-10-10T05:51:11.717Z,85.41259766
2022-10-10T05:52:12.274Z,85.41259766
2022-10-10T05:53:13.807Z,85.51635742
2022-10-10T05:54:14.384Z,85.41259766
2022-10-10T05:55:14.974Z,85.51635742
2022-10-10T05:56:15.533Z,85.51635742
2022-10-10T05:57:16.540Z,85.51635742
2022-10-10T05:58:17.272Z,85.41259766
2022-10-10T05:59:17.822Z,85.41259766
2022-10-10T06:00:18.348Z,85.41259766
2022-10-10T06:01:18.922Z,85.41259766
2022-10-10T06:02:19.949Z,85.31494141
2022-10-10T06:03:51.504Z,85.37597656
2022-10-10T06:04:52.097Z,85.41259766
2022-10-10T06:05:52.641Z,85.41259766
2022-10-10T06:06:53.137Z,85.41259766
2022-10-10T06:08:05.721Z,85.47363281
2022-10-10T06:08:54.295Z,85.47363281
2022-10-10T06:09:55.774Z,85.37597656
2022-10-10T06:10:56.306Z,85.37597656
2022-10-10T06:11:56.900Z,85.37597656
2022-10-10T06:12:58.002Z,85.37597656
2022-10-10T06:13:58.600Z,85.2722168
2022-10-10T06:14:59.200Z,85.2722168
2022-10-10T06:15:59.771Z,85.37597656
2022-10-10T06:17:00.291Z,85.2722168
2022-10-10T06:18:00.852Z,85.2722168
2022-10-10T06:19:01.645Z,85.2722168
2022-10-10T06:20:02.197Z,85.2722168
2022-10-10T06:21:02.714Z,85.2722168
2022-10-10T06:22:03.997Z,85.2722168
2022-10-10T06:23:05.530Z,85.2722168
2022-10-10T06:24:06.075Z,85.2722168
2022-10-10T06:25:15.267Z,85.2722168
2022-10-10T06:26:07.179Z,85.16845703
2022-10-10T06:27:07.717Z,85.16845703
2022-10-10T06:28:08.328Z,85.16845703
2022-10-10T06:29:09.476Z,85.16845703
2022-10-10T06:30:10.002Z,85.07080078
2022-10-10T06:31:10.570Z,85.07080078
2022-10-10T06:32:11.131Z,85.07080078
2022-10-10T06:33:12.551Z,85.07080078
2022-10-10T06:34:13.037Z,85.07080078
2022-10-10T06:35:13.603Z,85.07080078
2022-10-10T06:36:14.101Z,85.07080078
2022-10-10T06:37:14.630Z,84.96704102
2022-10-10T06:38:15.188Z,84.86938477
2022-10-10T06:39:15.713Z,84.86938477
2022-10-10T06:40:16.268Z,84.96704102
2022-10-10T06:41:16.833Z,84.86938477
2022-10-10T06:42:17.369Z,84.86938477
2022-10-10T06:43:18.016Z,84.82666016
2022-10-10T06:44:49.878Z,84.82666016
2022-10-10T06:45:50.571Z,84.82666016
2022-10-10T06:46:51.122Z,84.62524414
2022-10-10T06:47:51.669Z,84.62524414
2022-10-10T06:48:52.240Z,84.72290039
2022-10-10T06:49:52.800Z,84.62524414
2022-10-10T06:50:54.258Z,84.62524414
2022-10-10T06:51:54.806Z,84.62524414
2022-10-10T06:52:55.369Z,84.72290039
2022-10-10T06:53:56.787Z,84.82666016
2022-10-10T06:54:57.328Z,84.93041992
2022-10-10T06:55:57.847Z,85.13183594
2022-10-10T06:56:58.368Z,85.2355957
2022-10-10T06:57:58.907Z,84.93041992
2022-10-10T06:58:59.506Z,85.02807617
2022-10-10T07:00:00.759Z,85.13183594
2022-10-10T07:01:01.290Z,85.02807617
2022-10-10T07:02:01.794Z,84.82666016
2022-10-10T07:03:02.339Z,84.82666016
2022-10-10T07:04:03.786Z,84.82666016
2022-10-10T07:05:04.325Z,85.02807617
2022-10-10T07:06:04.872Z,85.2355957
2022-10-10T07:07:05.466Z,85.33325195
2022-10-10T07:08:06.003Z,85.33325195
2022-10-10T07:09:07.340Z,85.2355957
2022-10-10T07:10:07.873Z,85.2355957
2022-10-10T07:11:08.425Z,85.2355957
2022-10-10T07:12:09.020Z,84.93041992
2022-10-10T07:13:09.547Z,84.6862793
2022-10-10T07:14:10.098Z,84.58251953
2022-10-10T07:15:10.677Z,84.58251953
2022-10-10T07:16:11.252Z,84.6862793
2022-10-10T07:17:11.863Z,84.78393555
2022-10-10T07:18:13.026Z,84.88769531
2022-10-10T07:19:13.604Z,84.88769531
2022-10-10T07:20:14.172Z,84.78393555
2022-10-10T07:21:14.703Z,84.6862793
2022-10-10T07:22:15.294Z,84.6862793
2022-10-10T07:23:16.477Z,84.58251953
2022-10-10T07:24:17.023Z,84.6862793
2022-10-10T07:25:17.603Z,84.58251953
2022-10-10T07:26:18.234Z,84.13696289
2022-10-10T07:27:49.290Z,84.13696289
2022-10-10T07:28:49.809Z,84.13696289
2022-10-10T07:29:50.726Z,84.13696289
2022-10-10T07:30:51.136Z,84.13696289
2022-10-10T07:31:51.711Z,84.24072266
2022-10-10T07:32:52.836Z,84.24072266
2022-10-10T07:33:53.931Z,84.34448242
2022-10-10T07:34:54.566Z,84.44213867
2022-10-10T07:35:55.101Z,84.34448242
2022-10-10T07:36:55.667Z,84.34448242
2022-10-10T07:37:56.252Z,84.54589844
2022-10-10T07:38:56.885Z,84.44213867
2022-10-10T07:39:58.410Z,84.24072266
2022-10-10T07:40:58.922Z,84.34448242
2022-10-10T07:41:59.494Z,84.34448242
2022-10-10T07:43:01.029Z,84.44213867
2022-10-10T07:44:02.561Z,84.54589844
2022-10-10T07:45:03.140Z,84.64355469
2022-10-10T07:46:05.782Z,84.74731445
2022-10-10T07:47:04.170Z,84.85107422
2022-10-10T07:48:04.735Z,84.74731445
2022-10-10T07:49:05.340Z,84.85107422
2022-10-10T07:50:05.929Z,84.80834961
2022-10-10T07:51:06.493Z,84.74731445
2022-10-10T07:52:07.819Z,84.70458984
2022-10-10T07:53:08.388Z,84.50317383
2022-10-10T07:54:09.826Z,84.50317383
2022-10-10T07:55:10.416Z,84.40551758
2022-10-10T07:56:11.001Z,84.19799805
2022-10-10T07:57:11.579Z,84.1003418
2022-10-10T07:58:12.194Z,84.1003418
2022-10-10T07:59:12.730Z,84.40551758
2022-10-10T08:00:13.305Z,84.30175781
2022-10-10T08:01:13.791Z,84.30175781
2022-10-10T08:02:14.386Z,84.40551758
2022-10-10T08:03:14.877Z,84.40551758
2022-10-10T08:04:16.312Z,84.30175781
2022-10-10T08:05:16.870Z,84.30175781
2022-10-10T08:06:17.458Z,84.30175781
2022-10-10T08:07:18.436Z,83.95996094
2022-10-10T08:08:51.226Z,84.05761719
2022-10-10T08:09:50.988Z,84.05761719
2022-10-10T08:10:51.552Z,84.05761719
2022-10-10T08:11:52.046Z,84.16137695
2022-10-10T08:12:52.579Z,83.95996094
2022-10-10T08:13:54.001Z,83.75854492
2022-10-10T08:14:54.583Z,83.55102539
2022-10-10T08:15:55.204Z,83.34960938
2022-10-10T08:16:55.735Z,83.25195313
2022-10-10T08:17:56.342Z,83.25195313
2022-10-10T08:18:56.875Z,83.25195313
2022-10-10T08:19:57.422Z,83.34960938
2022-10-10T08:20:58.022Z,83.45336914
2022-10-10T08:21:59.525Z,83.45336914
2022-10-10T08:23:00.097Z,83.41064453
2022-10-10T08:24:01.516Z,83.5144043
2022-10-10T08:25:02.089Z,83.41064453
2022-10-10T08:26:02.594Z,83.31298828
2022-10-10T08:27:03.111Z,82.80639648
2022-10-10T08:28:04.552Z,82.60498047
2022-10-10T08:29:05.072Z,82.70263672
2022-10-10T08:30:05.589Z,82.80639648
2022-10-10T08:31:06.243Z,83.0078125
2022-10-10T08:32:06.767Z,83.0078125
2022-10-10T08:33:07.285Z,83.0078125
2022-10-10T08:34:08.534Z,83.0078125
2022-10-10T08:35:09.067Z,83.0078125
2022-10-10T08:36:09.615Z,83.11157227
2022-10-10T08:37:10.133Z,83.31298828
2022-10-10T08:38:10.691Z,83.20922852
2022-10-10T08:39:11.270Z,82.66601563
2022-10-10T08:40:11.826Z,82.36083984
2022-10-10T08:41:12.366Z,82.36083984
2022-10-10T08:42:12.875Z,82.46459961
2022-10-10T08:43:13.407Z,82.36083984
2022-10-10T08:44:14.486Z,82.36083984
2022-10-10T08:45:15.013Z,82.36083984
2022-10-10T08:46:15.623Z,81.95800781
2022-10-10T08:47:16.226Z,81.85424805
2022-10-10T08:48:16.706Z,81.95800781
2022-10-10T08:49:17.233Z,81.85424805
2022-10-10T08:50:48.375Z,81.65283203
2022-10-10T08:51:49.503Z,81.7565918
2022-10-10T08:52:50.418Z,81.85424805
2022-10-10T08:53:51.562Z,82.15942383
2022-10-10T08:54:57.474Z,82.15942383
2022-10-10T08:55:52.628Z,82.05566406
2022-10-10T08:56:53.188Z,82.05566406
2022-10-10T08:57:54.512Z,82.01904297
2022-10-10T08:58:55.067Z,82.01904297
2022-10-10T08:59:55.651Z,82.01904297
2022-10-10T09:00:56.259Z,82.01904297
2022-10-10T09:02:18.800Z,81.81762695
2022-10-10T09:02:57.372Z,82.01904297
2022-10-10T09:03:58.502Z,81.71386719
2022-10-10T09:04:59.900Z,81.41479492
2022-10-10T09:06:00.644Z,81.31103516
2022-10-10T09:07:01.185Z,80.70678711
2022-10-10T09:08:01.708Z,80.90820313
2022-10-10T09:09:02.342Z,81.10961914
2022-10-10T09:10:02.974Z,81.00585938
2022-10-10T09:11:03.685Z,81.20727539
2022-10-10T09:12:04.739Z,81.20727539
2022-10-10T09:13:05.259Z,81.20727539
2022-10-10T09:14:06.601Z,81.31103516
2022-10-10T09:15:07.299Z,81.41479492
2022-10-10T09:16:07.995Z,81.51245117
2022-10-10T09:17:08.561Z,81.71386719
2022-10-10T09:18:09.024Z,81.71386719
2022-10-10T09:19:11.607Z,81.71386719
2022-10-10T09:20:10.328Z,81.57348633
2022-10-10T09:21:11.505Z,81.27441406
2022-10-10T09:22:12.015Z,81.1706543
2022-10-10T09:23:12.494Z,81.07299805
2022-10-10T09:24:14.028Z,80.96923828
2022-10-10T09:25:14.730Z,80.6640625
2022-10-10T09:26:15.346Z,80.6640625
2022-10-10T09:27:15.955Z,80.56640625
2022-10-10T09:28:16.513Z,80.26123047
2022-10-10T09:29:17.742Z,80.16357422
2022-10-10T09:30:48.769Z,80.26123047
2022-10-10T09:31:49.369Z,79.95605469
2022-10-10T09:32:50.769Z,79.62036133
2022-10-10T09:33:51.250Z,79.51660156
2022-10-10T09:34:52.285Z,79.71801758
2022-10-10T09:35:52.751Z,80.93261719
2022-10-10T09:36:57.236Z,81.640625
2022-10-10T09:37:53.752Z,81.640625
2022-10-10T09:38:54.255Z,81.640625
2022-10-10T09:39:54.718Z,81.73828125
2022-10-10T09:40:55.780Z,81.73828125
2022-10-10T09:41:55.765Z,81.53686523
2022-10-10T09:42:56.276Z,81.50024414
2022-10-10T09:43:57.793Z,81.19506836
2022-10-10T09:44:59.253Z,81.29882813
2022-10-10T09:45:59.753Z,81.19506836
2022-10-10T09:47:00.233Z,80.89599609
2022-10-10T09:48:00.761Z,81.09741211
2022-10-10T09:49:01.337Z,80.89599609
2022-10-10T09:50:01.829Z,80.68847656
2022-10-10T09:51:02.324Z,80.3894043
2022-10-10T09:52:03.482Z,80.59082031
2022-10-10T09:53:04.005Z,80.59082031
2022-10-10T09:54:04.521Z,80.3894043
2022-10-10T09:55:04.983Z,80.82885742
2022-10-10T09:56:06.230Z,80.52978516
2022-10-10T09:57:06.690Z,80.32226563
2022-10-10T09:58:07.302Z,80.32226563
2022-10-10T09:59:07.805Z,80.52978516
2022-10-10T10:00:08.304Z,80.32226563
2022-10-10T10:01:08.861Z,80.42602539
2022-10-10T10:02:09.255Z,80.52978516
2022-10-10T10:03:09.823Z,80.22460938
2022-10-10T10:04:26.581Z,80.18798828
2022-10-10T10:05:11.746Z,80.08422852
2022-10-10T10:06:12.237Z,80.08422852
2022-10-10T10:07:12.726Z,80.18798828
2022-10-10T10:08:13.239Z,79.98657227
2022-10-10T10:09:13.853Z,79.68139648
2022-10-10T10:10:14.350Z,79.57763672
2022-10-10T10:11:14.895Z,79.44335938
2022-10-10T10:12:15.352Z,79.44335938
2022-10-10T10:13:15.864Z,79.44335938
2022-10-10T10:14:16.364Z,79.24194336
2022-10-10T10:15:48.063Z,79.13818359
2022-10-10T10:16:48.616Z,78.6315918
2022-10-10T10:17:49.151Z,78.6315918
2022-10-10T10:18:49.709Z,78.53393555
2022-10-10T10:19:50.334Z,78.83911133
2022-10-10T10:20:51.027Z,78.83911133
2022-10-10T10:21:52.248Z,78.53393555
2022-10-10T10:23:53.783Z,78.73535156
2022-10-10T10:24:54.987Z,78.6315918
2022-10-10T10:25:55.819Z,78.6315918
2022-10-10T10:26:56.581Z,78.39355469
2022-10-10T10:27:57.263Z,78.19213867
2022-10-10T10:28:58.829Z,78.29589844
2022-10-10T10:29:59.369Z,78.29589844
2022-10-10T10:31:00.038Z,78.79638672
2022-10-10T10:32:00.741Z,78.79638672
2022-10-10T10:33:01.489Z,78.83911133
2022-10-10T10:34:03.051Z,78.93676758
2022-10-10T10:35:03.595Z,79.04052734
2022-10-10T10:36:04.928Z,78.93676758
2022-10-10T10:37:05.627Z,79.04052734
2022-10-10T10:38:06.398Z,78.93676758
2022-10-10T10:39:07.086Z,78.93676758
2022-10-10T10:40:07.569Z,78.90014648
2022-10-10T10:41:08.228Z,78.79638672
2022-10-10T10:42:08.952Z,78.69873047
2022-10-10T10:43:09.649Z,78.79638672
2022-10-10T10:44:10.358Z,78.90014648
2022-10-10T10:45:11.809Z,78.79638672
2022-10-10T10:46:12.313Z,78.69873047
2022-10-10T10:47:13.021Z,78.69873047
2022-10-10T10:48:13.704Z,78.79638672
2022-10-10T10:49:14.524Z,78.69873047
2022-10-10T10:50:16.013Z,78.90014648
2022-10-10T10:51:46.925Z,79.1015625
2022-10-10T10:52:47.627Z,78.79638672
2022-10-10T10:53:49.074Z,78.73535156
2022-10-10T10:54:49.908Z,78.6315918
2022-10-10T10:55:51.375Z,78.73535156
2022-10-10T10:56:51.948Z,78.83911133
2022-10-10T10:58:05.116Z,78.93676758
2022-10-10T10:59:30.289Z,78.93676758
2022-10-10T11:00:26.173Z,79.04052734
2022-10-10T11:01:23.497Z,79.04052734
2022-10-10T11:01:58.103Z,78.93676758
2022-10-10T11:03:06.042Z,78.93676758
2022-10-10T11:05:20.539Z,79.44335938
2022-10-10T11:05:20.602Z,79.04052734
2022-10-10T11:05:59.387Z,79.44335938
2022-10-10T11:07:17.750Z,79.33959961
2022-10-10T11:08:00.354Z,79.84619141